Time;durP1;ratioP1;P1;durP2;ratioP2;P2;SDS_P1;SDS_P2;PMS_P1;PMS_P2;Temp;Humidity;BMP_temperature;BMP_pressure;BME280_temperature;BME280_humidity;BME280_pressure;Samples;Min_cycle;Max_cycle;Signal;HPM_P1;HPM_P2
2023/06/01 00:01:58;;;;;;;8.80;6.93;;;15.90;99.90;;;;;;5031134;28;20179;-65
2023/06/01 00:04:23;;;;;;;9.90;6.60;;;15.90;99.90;;;;;;5029819;28;20195;-65
2023/06/01 00:06:49;;;;;;;9.37;6.37;;;15.80;99.90;;;;;;5031180;28;20229;-65
2023/06/01 00:09:15;;;;;;;6.07;5.47;;;15.80;99.90;;;;;;5031170;28;20551;-65
2023/06/01 00:11:40;;;;;;;7.27;6.47;;;15.80;99.90;;;;;;5031118;28;20183;-65
2023/06/01 00:14:06;;;;;;;6.93;6.30;;;15.80;99.90;;;;;;5031347;28;20199;-65
2023/06/01 00:16:32;;;;;;;7.10;6.27;;;15.70;99.90;;;;;;5030952;28;20262;-65
2023/06/01 00:19:00;;;;;;;7.50;6.83;;;15.70;99.90;;;;;;5031168;28;20199;-65
2023/06/01 00:21:27;;;;;;;6.57;5.97;;;15.70;99.90;;;;;;5030660;28;20187;-65
2023/06/01 00:23:53;;;;;;;7.00;6.30;;;15.70;99.90;;;;;;5031151;28;20200;-67
2023/06/01 00:26:19;;;;;;;8.07;6.10;;;15.70;99.90;;;;;;5030809;28;20175;-65
2023/06/01 00:28:44;;;;;;;7.70;6.63;;;15.70;99.90;;;;;;5031009;28;20168;-65
2023/06/01 00:31:10;;;;;;;7.57;6.57;;;15.70;99.90;;;;;;5030506;28;20179;-65
2023/06/01 00:33:36;;;;;;;7.17;6.33;;;15.60;99.90;;;;;;5029607;28;20205;-65
2023/06/01 00:36:01;;;;;;;7.90;6.13;;;15.60;99.90;;;;;;5030848;28;20183;-65
2023/06/01 00:38:27;;;;;;;6.27;5.63;;;15.60;99.90;;;;;;5030747;28;20322;-65
2023/06/01 00:40:53;;;;;;;8.90;6.50;;;15.60;99.90;;;;;;5030558;28;20183;-65
2023/06/01 00:43:18;;;;;;;7.27;6.10;;;15.50;99.90;;;;;;5030980;28;20287;-65
2023/06/01 00:45:44;;;;;;;5.57;5.17;;;15.40;99.90;;;;;;5030976;28;20301;-65
2023/06/01 00:48:11;;;;;;;6.53;6.03;;;15.40;99.90;;;;;;5030877;28;20603;-65
2023/06/01 00:50:37;;;;;;;7.57;6.73;;;15.40;99.90;;;;;;5030371;28;20180;-65
2023/06/01 00:53:06;;;;;;;7.83;7.13;;;15.30;99.90;;;;;;5030777;28;20204;-65
2023/06/01 00:55:33;;;;;;;7.30;6.80;;;15.30;99.90;;;;;;5030700;28;20180;-65
2023/06/01 00:57:59;;;;;;;6.87;6.33;;;15.30;99.90;;;;;;5030872;28;20203;-65
2023/06/01 01:00:28;;;;;;;8.17;6.13;;;15.20;99.90;;;;;;5029961;28;20679;-65
2023/06/01 01:02:56;;;;;;;8.53;5.83;;;15.20;99.90;;;;;;5030867;28;20578;-65
2023/06/01 01:05:26;;;;;;;8.90;6.07;;;15.20;99.90;;;;;;5033917;28;20545;-65
2023/06/01 01:08:12;;;;;;;6.27;5.67;;;15.20;99.90;;;;;;5034316;28;20210;-65
2023/06/01 01:10:52;;;;;;;7.50;5.90;;;15.20;99.90;;;;;;5032403;28;20264;-65
2023/06/01 01:13:26;;;;;;;6.57;5.60;;;15.20;99.90;;;;;;5032576;28;20621;-65
2023/06/01 01:16:07;;;;;;;6.30;5.70;;;15.10;99.90;;;;;;5034226;28;20575;-65
2023/06/01 01:18:41;;;;;;;7.83;5.63;;;15.10;99.90;;;;;;5033940;28;20613;-65
2023/06/01 01:24:28;;;;;;;6.63;5.53;;;15.00;99.90;;;;;;5033920;28;20587;-65
2023/06/01 01:27:24;;;;;;;7.13;6.53;;;14.90;99.90;;;;;;5033935;28;20199;-65
2023/06/01 01:29:55;;;;;;;7.70;6.87;;;14.90;99.90;;;;;;5033722;28;20175;-65
2023/06/01 01:32:24;;;;;;;8.37;7.70;;;14.80;99.90;;;;;;5033351;28;20199;-65
2023/06/01 01:34:51;;;;;;;7.57;6.87;;;14.80;99.90;;;;;;5033824;28;20269;-65
2023/06/01 01:37:16;;;;;;;6.87;6.27;;;14.80;99.90;;;;;;5033784;28;20207;-65
2023/06/01 01:39:42;;;;;;;7.83;6.50;;;14.70;99.90;;;;;;5033735;28;20546;-65
2023/06/01 01:42:08;;;;;;;7.63;6.27;;;14.70;99.90;;;;;;5033382;28;20175;-65
2023/06/01 01:44:34;;;;;;;9.77;6.80;;;14.60;99.90;;;;;;5033898;28;20649;-65
2023/06/01 01:47:27;;;;;;;8.90;6.57;;;14.60;99.90;;;;;;5032983;28;20177;-65
2023/06/01 01:49:59;;;;;;;7.97;6.50;;;14.60;99.90;;;;;;5032953;28;20182;-65
2023/06/01 01:52:31;;;;;;;7.67;7.00;;;14.60;99.90;;;;;;5033186;28;20241;-65
2023/06/01 01:54:58;;;;;;;7.63;6.70;;;14.50;99.90;;;;;;5033228;28;20534;-65
2023/06/01 01:57:25;;;;;;;6.27;5.70;;;14.50;99.90;;;;;;5031721;28;20214;-65
2023/06/01 01:59:53;;;;;;;6.80;6.00;;;14.50;99.90;;;;;;5032099;28;20334;-65
2023/06/01 02:02:18;;;;;;;6.43;5.90;;;14.40;99.90;;;;;;5033028;28;20569;-65
2023/06/01 02:04:48;;;;;;;7.47;6.77;;;14.40;99.90;;;;;;5033126;28;20168;-65
2023/06/01 02:07:14;;;;;;;10.63;6.77;;;14.40;99.90;;;;;;5032954;28;20191;-65
2023/06/01 02:09:40;;;;;;;12.20;6.90;;;14.40;99.90;;;;;;5032985;28;20179;-65
2023/06/01 02:12:07;;;;;;;8.33;7.10;;;14.30;99.90;;;;;;5032443;28;20194;-65
2023/06/01 02:14:33;;;;;;;7.37;6.70;;;14.30;99.90;;;;;;5032078;28;20187;-65
2023/06/01 02:17:00;;;;;;;9.93;7.70;;;14.30;99.90;;;;;;5032842;28;20215;-65
2023/06/01 02:19:26;;;;;;;10.43;7.73;;;14.20;99.90;;;;;;5032481;28;20180;-65
2023/06/01 02:21:52;;;;;;;8.10;7.27;;;14.20;99.90;;;;;;5032788;28;20172;-65
2023/06/01 02:24:17;;;;;;;8.50;7.63;;;14.20;99.90;;;;;;5032860;28;20527;-65
2023/06/01 02:26:45;;;;;;;9.67;7.73;;;14.10;99.90;;;;;;5032802;28;20198;-65
2023/06/01 02:29:12;;;;;;;11.83;7.10;;;14.10;99.90;;;;;;5032714;28;20176;-65
2023/06/01 02:31:38;;;;;;;10.53;7.53;;;14.00;99.90;;;;;;5032039;28;20676;-65
2023/06/01 02:34:04;;;;;;;10.97;7.00;;;14.00;99.90;;;;;;5032728;28;20247;-65
2023/06/01 02:36:31;;;;;;;9.40;6.70;;;14.00;99.90;;;;;;5032273;28;20175;-65
2023/06/01 02:38:57;;;;;;;8.63;7.00;;;13.90;99.90;;;;;;5032741;28;20289;-65
2023/06/01 02:41:24;;;;;;;13.50;7.03;;;13.90;99.90;;;;;;5031908;28;20231;-65
2023/06/01 02:43:50;;;;;;;8.27;6.83;;;13.90;99.90;;;;;;5032500;28;20202;-64
2023/06/01 02:46:20;;;;;;;9.37;7.40;;;13.90;99.90;;;;;;5033254;28;20179;-72
2023/06/01 02:48:46;;;;;;;8.37;7.53;;;13.80;99.90;;;;;;5031879;28;20183;-71
2023/06/01 02:51:12;;;;;;;9.47;7.20;;;13.80;99.90;;;;;;5032587;28;20184;-67
2023/06/01 02:53:41;;;;;;;10.20;7.20;;;13.70;99.90;;;;;;5031801;28;20210;-72
2023/06/01 02:56:07;;;;;;;10.87;7.40;;;13.70;99.90;;;;;;5015394;28;20457;-69
2023/06/01 02:58:33;;;;;;;8.20;7.37;;;13.70;99.90;;;;;;5032936;28;20301;-69
2023/06/01 03:00:59;;;;;;;10.33;7.53;;;13.70;99.90;;;;;;5032362;28;20262;-69
2023/06/01 03:03:25;;;;;;;12.97;8.77;;;13.60;99.90;;;;;;5032868;28;20200;-71
2023/06/01 03:05:51;;;;;;;11.40;7.83;;;13.60;99.90;;;;;;5032557;28;20186;-67
2023/06/01 03:08:17;;;;;;;8.87;8.03;;;13.60;99.90;;;;;;5032170;28;20706;-73
2023/06/01 03:10:43;;;;;;;12.07;8.50;;;13.60;99.90;;;;;;5031354;28;20183;-70
2023/06/01 03:13:09;;;;;;;12.27;8.60;;;13.50;99.90;;;;;;5031663;28;20294;-70
2023/06/01 03:15:37;;;;;;;8.83;8.00;;;13.50;99.90;;;;;;5033022;28;20222;-71
2023/06/01 03:18:03;;;;;;;13.97;9.73;;;13.40;99.90;;;;;;5032947;28;20724;-71
2023/06/01 03:20:29;;;;;;;15.17;9.40;;;13.40;99.90;;;;;;5012939;28;20206;-69
2023/06/01 03:22:54;;;;;;;16.73;8.90;;;13.40;99.90;;;;;;5028278;28;20246;-72
2023/06/01 03:25:20;;;;;;;8.87;8.00;;;13.40;99.90;;;;;;5031978;28;20179;-71
2023/06/01 03:27:46;;;;;;;12.00;8.83;;;13.40;99.90;;;;;;5015277;28;20273;-70
2023/06/01 03:30:12;;;;;;;11.57;8.33;;;13.40;99.90;;;;;;5032592;28;20213;-70
2023/06/01 03:32:38;;;;;;;16.53;9.67;;;13.30;99.90;;;;;;5031567;28;20199;-72
2023/06/01 03:35:07;;;;;;;11.93;9.53;;;13.30;99.90;;;;;;5031673;28;20726;-68
2023/06/01 03:37:34;;;;;;;11.33;9.23;;;13.20;99.90;;;;;;5031285;28;20210;-73
2023/06/01 03:40:00;;;;;;;13.63;10.30;;;13.20;99.90;;;;;;5032719;28;20544;-68
2023/06/01 03:42:25;;;;;;;14.60;10.20;;;13.10;99.90;;;;;;5031920;28;20206;-70
2023/06/01 03:44:52;;;;;;;11.63;10.43;;;13.20;99.90;;;;;;5032654;28;20268;-67
2023/06/01 03:47:17;;;;;;;14.93;9.37;;;13.10;99.90;;;;;;5030943;28;20649;-69
2023/06/01 03:49:43;;;;;;;15.30;9.67;;;13.10;99.90;;;;;;5032406;28;20280;-69
2023/06/01 03:52:09;;;;;;;14.80;9.70;;;13.10;99.90;;;;;;5031974;28;20191;-71
2023/06/01 03:54:35;;;;;;;11.67;10.20;;;13.00;99.90;;;;;;5032307;28;20190;-68
2023/06/01 03:57:01;;;;;;;13.77;10.50;;;13.10;99.90;;;;;;5030896;28;20211;-68
2023/06/01 03:59:27;;;;;;;12.93;10.33;;;13.10;99.90;;;;;;5030584;28;20253;-69
2023/06/01 04:01:53;;;;;;;16.77;10.60;;;13.10;99.90;;;;;;5030803;28;20179;-68
2023/06/01 04:04:26;;;;;;;15.60;11.00;;;13.00;99.90;;;;;;5031955;28;20178;-69
2023/06/01 04:06:52;;;;;;;20.10;12.00;;;13.10;99.90;;;;;;5030811;28;20206;-69
2023/06/01 04:09:18;;;;;;;17.43;11.60;;;13.00;99.90;;;;;;5030137;28;20203;-67
2023/06/01 04:11:44;;;;;;;14.50;11.80;;;13.00;99.90;;;;;;5031293;28;20219;-66
2023/06/01 04:14:10;;;;;;;16.80;11.87;;;13.00;99.90;;;;;;5031175;28;20611;-67
2023/06/01 04:16:35;;;;;;;15.93;12.10;;;13.00;99.90;;;;;;5029638;28;20183;-66
2023/06/01 04:19:01;;;;;;;21.60;12.30;;;13.00;99.90;;;;;;5031339;28;20399;-67
2023/06/01 04:21:27;;;;;;;19.10;12.47;;;13.00;99.90;;;;;;5030594;28;20187;-67
2023/06/01 04:23:52;;;;;;;13.83;11.27;;;13.10;99.90;;;;;;5031091;28;20192;-67
2023/06/01 04:26:18;;;;;;;14.67;11.47;;;13.10;99.90;;;;;;5030871;28;20218;-67
2023/06/01 04:28:45;;;;;;;20.93;12.80;;;13.20;99.90;;;;;;5031276;28;20700;-66
2023/06/01 04:31:16;;;;;;;16.60;12.13;;;13.20;99.90;;;;;;5030509;28;20175;-67
2023/06/01 04:33:44;;;;;;;15.63;12.50;;;13.20;99.90;;;;;;5031084;28;20196;-67
2023/06/01 04:36:12;;;;;;;18.67;12.63;;;13.30;99.90;;;;;;5029870;28;20688;-66
2023/06/01 04:38:41;;;;;;;16.00;12.80;;;13.40;99.90;;;;;;5031578;28;20203;-66
2023/06/01 04:41:09;;;;;;;19.33;11.97;;;13.50;99.90;;;;;;5034327;28;20172;-67
2023/06/01 04:43:42;;;;;;;22.23;13.90;;;13.50;99.90;;;;;;5034696;28;20210;-67
2023/06/01 04:46:08;;;;;;;18.30;12.47;;;13.40;99.90;;;;;;5033663;28;20183;-67
2023/06/01 04:48:34;;;;;;;19.03;12.43;;;13.50;99.90;;;;;;5034574;28;20225;-67
2023/06/01 04:50:59;;;;;;;19.93;12.87;;;13.50;99.90;;;;;;5034308;28;20256;-67
2023/06/01 04:53:26;;;;;;;16.87;12.83;;;13.60;99.90;;;;;;5034510;28;20199;-67
2023/06/01 04:55:53;;;;;;;15.40;12.57;;;13.70;99.90;;;;;;5034515;28;20176;-67
2023/06/01 04:58:19;;;;;;;20.30;12.17;;;13.90;99.90;;;;;;5034364;28;20199;-67
2023/06/01 05:00:45;;;;;;;25.03;13.87;;;14.20;99.90;;;;;;5033945;28;20186;-67
2023/06/01 05:03:12;;;;;;;19.10;14.47;;;14.30;99.90;;;;;;5034534;28;20199;-67
2023/06/01 05:05:37;;;;;;;19.87;15.63;;;14.40;99.90;;;;;;5033966;28;20187;-67
2023/06/01 05:08:03;;;;;;;22.43;14.90;;;14.50;99.90;;;;;;5034609;28;20506;-67
2023/06/01 05:10:30;;;;;;;18.57;14.50;;;14.60;99.90;;;;;;5032259;28;20245;-67
2023/06/01 05:12:55;;;;;;;23.23;15.50;;;14.70;99.90;;;;;;5034231;28;20207;-67
2023/06/01 05:15:21;;;;;;;21.13;15.30;;;14.80;99.90;;;;;;5033782;28;20542;-66
2023/06/01 05:17:47;;;;;;;20.87;14.97;;;14.80;99.90;;;;;;5033666;28;20541;-67
2023/06/01 05:20:13;;;;;;;25.87;16.00;;;15.00;99.90;;;;;;5033171;28;20180;-67
2023/06/01 05:22:39;;;;;;;22.37;16.93;;;15.00;99.90;;;;;;5034020;28;20618;-67
2023/06/01 05:25:05;;;;;;;19.33;15.83;;;14.90;99.90;;;;;;5033895;28;20649;-67
2023/06/01 05:27:31;;;;;;;25.97;16.97;;;14.90;99.90;;;;;;5033212;28;20188;-67
2023/06/01 05:29:56;;;;;;;22.17;16.53;;;15.10;99.90;;;;;;5033881;28;20175;-66
2023/06/01 05:32:22;;;;;;;20.53;16.13;;;15.10;99.90;;;;;;5033664;28;20203;-67
2023/06/01 05:34:48;;;;;;;23.10;18.27;;;15.10;99.90;;;;;;5033802;28;20292;-67
2023/06/01 05:37:13;;;;;;;23.47;17.37;;;15.30;99.90;;;;;;5033661;28;20210;-67
2023/06/01 05:39:39;;;;;;;28.97;19.27;;;15.50;99.90;;;;;;5032014;28;20605;-66
2023/06/01 05:42:05;;;;;;;24.03;18.57;;;15.50;99.90;;;;;;5033859;28;20175;-67
2023/06/01 05:44:31;;;;;;;22.20;17.90;;;15.50;99.90;;;;;;5013900;28;20526;-67
2023/06/01 05:46:57;;;;;;;20.53;16.33;;;15.70;99.90;;;;;;5014126;28;20176;-67
2023/06/01 05:49:23;;;;;;;22.63;16.30;;;16.00;99.90;;;;;;5031776;28;20321;-67
2023/06/01 05:51:48;;;;;;;23.13;17.90;;;16.20;99.90;;;;;;5033663;28;20179;-67
2023/06/01 05:54:14;;;;;;;23.83;14.37;;;16.40;99.90;;;;;;5032939;28;20217;-67
2023/06/01 05:56:42;;;;;;;20.00;14.93;;;16.80;99.90;;;;;;5031997;28;20270;-67
2023/06/01 05:59:08;;;;;;;21.83;16.07;;;17.10;99.90;;;;;;5033306;28;20207;-67
2023/06/01 06:01:34;;;;;;;21.33;17.47;;;17.40;99.90;;;;;;5033209;28;20176;-67
2023/06/01 06:03:59;;;;;;;18.63;15.13;;;17.50;99.90;;;;;;5032102;28;20222;-67
2023/06/01 06:06:26;;;;;;;23.47;16.07;;;17.40;99.90;;;;;;5032905;28;20182;-67
2023/06/01 06:08:52;;;;;;;20.83;16.53;;;17.40;99.90;;;;;;5033480;28;20175;-67
2023/06/01 06:11:18;;;;;;;18.33;15.07;;;17.70;99.90;;;;;;5033064;28;20176;-67
2023/06/01 06:13:43;;;;;;;20.27;15.55;;;17.90;99.90;;;;;;5033197;28;20222;-67
2023/06/01 06:16:09;;;;;;;19.95;15.52;;;17.80;99.90;;;;;;5031954;28;20202;-65
2023/06/01 06:18:35;;;;;;;1999.90;999.90;;;17.90;99.90;;;;;;5032672;28;20213;-65
2023/06/01 06:21:01;;;;;;;19.75;14.13;;;18.20;99.90;;;;;;5032935;28;20175;-65
2023/06/01 06:23:27;;;;;;;18.45;14.35;;;18.30;99.90;;;;;;5032762;28;20207;-65
2023/06/01 06:25:52;;;;;;;20.63;14.50;;;18.50;99.90;;;;;;5028238;28;20184;-65
2023/06/01 06:28:18;;;;;;;19.67;14.77;;;18.40;99.90;;;;;;5012208;28;20176;-65
2023/06/01 06:30:44;;;;;;;19.00;16.77;;;18.20;99.90;;;;;;5015333;28;20183;-65
2023/06/01 06:33:10;;;;;;;21.65;17.52;;;18.00;99.90;;;;;;5032583;28;20226;-65
2023/06/01 06:35:37;;;;;;;23.23;19.17;;;17.80;99.90;;;;;;5032310;28;20558;-66
2023/06/01 06:38:02;;;;;;;21.10;15.87;;;17.70;99.90;;;;;;5032692;28;20612;-67
2023/06/01 06:40:28;;;;;;;24.08;16.88;;;17.80;99.90;;;;;;5030870;28;20180;-67
2023/06/01 06:42:53;;;;;;;24.92;18.00;;;17.70;99.90;;;;;;5032293;28;20568;-67
2023/06/01 06:45:19;;;;;;;24.43;19.00;;;17.60;99.90;;;;;;5031342;28;20641;-68
2023/06/01 06:47:46;;;;;;;23.97;18.00;;;17.40;99.90;;;;;;5032261;28;20187;-67
2023/06/01 06:50:12;;;;;;;25.57;22.27;;;17.10;99.90;;;;;;5031111;28;20213;-67
2023/06/01 06:52:38;;;;;;;31.23;20.60;;;17.00;99.90;;;;;;5031148;28;20214;-67
2023/06/01 06:55:04;;;;;;;31.73;21.10;;;16.80;99.90;;;;;;5031884;28;20176;-67
2023/06/01 06:57:29;;;;;;;27.97;22.47;;;16.70;99.90;;;;;;5030759;28;20207;-67
2023/06/01 06:59:55;;;;;;;37.20;22.83;;;16.70;99.90;;;;;;5031877;28;20186;-67
2023/06/01 07:02:21;;;;;;;28.60;23.27;;;16.80;99.90;;;;;;5031137;28;20204;-67
2023/06/01 07:04:48;;;;;;;31.83;23.63;;;16.80;99.90;;;;;;5031460;28;20218;-67
2023/06/01 07:07:14;;;;;;;27.23;21.67;;;16.80;99.90;;;;;;5030048;28;20180;-67
2023/06/01 07:09:40;;;;;;;30.97;23.03;;;16.90;99.90;;;;;;5031516;28;20251;-67
2023/06/01 07:12:06;;;;;;;32.43;23.67;;;16.90;99.90;;;;;;5030876;28;20364;-67
2023/06/01 07:14:32;;;;;;;25.67;19.50;;;16.90;99.90;;;;;;5029953;28;20183;-67
2023/06/01 07:16:57;;;;;;;23.60;19.40;;;17.00;99.90;;;;;;5032222;28;20220;-67
2023/06/01 07:19:23;;;;;;;25.13;18.07;;;17.00;99.90;;;;;;5031543;28;20182;-67
2023/06/01 07:21:49;;;;;;;20.13;17.27;;;17.00;99.90;;;;;;5031815;28;20175;-67
2023/06/01 07:24:19;;;;;;;28.73;18.50;;;17.20;99.90;;;;;;5031764;28;20176;-67
2023/06/01 07:26:44;;;;;;;20.57;15.83;;;17.30;99.90;;;;;;5031912;28;20176;-67
2023/06/01 07:29:11;;;;;;;20.40;16.67;;;17.40;99.90;;;;;;5031440;28;20250;-67
2023/06/01 07:31:38;;;;;;;22.33;16.57;;;17.70;99.90;;;;;;5033258;28;20175;-67
2023/06/01 07:34:04;;;;;;;23.07;16.63;;;17.70;99.90;;;;;;5031688;28;20203;-67
2023/06/01 07:36:36;;;;;;;22.33;17.97;;;17.70;99.90;;;;;;5031332;28;20241;-67
2023/06/01 07:39:05;;;;;;;24.05;17.73;;;17.60;99.90;;;;;;5031302;28;20256;-67
2023/06/01 07:41:32;;;;;;;18.97;16.20;;;18.00;99.90;;;;;;5030164;28;20384;-65
2023/06/01 07:43:57;;;;;;;21.90;16.95;;;18.50;99.90;;;;;;5030553;28;20195;-65
2023/06/01 07:46:23;;;;;;;20.95;16.50;;;18.90;99.90;;;;;;5030609;28;20672;-65
2023/06/01 07:48:48;;;;;;;24.67;16.10;;;19.10;99.90;;;;;;5030993;28;20259;-65
2023/06/01 07:51:14;;;;;;;21.48;14.68;;;19.10;99.90;;;;;;5030968;28;20191;-65
2023/06/01 07:53:40;;;;;;;20.35;14.88;;;19.00;99.90;;;;;;5031210;28;20227;-66
2023/06/01 07:56:06;;;;;;;20.45;14.80;;;19.30;99.90;;;;;;5031262;28;20471;-66
2023/06/01 07:58:31;;;;;;;19.40;14.70;;;19.50;99.90;;;;;;5031147;28;20195;-66
2023/06/01 08:00:57;;;;;;;18.77;16.13;;;19.60;99.90;;;;;;5029668;28;20175;-66
2023/06/01 08:03:25;;;;;;;18.92;15.23;;;19.50;99.90;;;;;;5031126;28;20696;-65
2023/06/01 08:05:54;;;;;;;17.60;14.68;;;19.30;99.90;;;;;;5031148;28;20194;-65
2023/06/01 08:08:21;;;;;;;19.10;14.90;;;19.70;99.90;;;;;;5031344;28;20510;-66
2023/06/01 08:10:46;;;;;;;19.63;14.68;;;19.90;99.90;;;;;;5030790;28;20653;-65
2023/06/01 08:13:13;;;;;;;16.52;13.88;;;20.10;99.90;;;;;;5031287;28;20210;-65
2023/06/01 08:15:39;;;;;;;22.05;16.15;;;20.30;99.90;;;;;;5035945;28;20270;-66
2023/06/01 08:18:06;;;;;;;21.83;16.58;;;20.30;99.90;;;;;;5035549;28;20195;-65
2023/06/01 08:20:32;;;;;;;18.20;16.15;;;20.50;99.90;;;;;;5034641;28;20195;-66
2023/06/01 08:22:57;;;;;;;25.63;17.00;;;20.40;99.90;;;;;;5035380;28;20223;-66
2023/06/01 08:25:23;;;;;;;22.08;16.85;;;20.40;99.90;;;;;;5034999;28;20637;-65
2023/06/01 08:27:49;;;;;;;23.63;17.63;;;20.50;99.90;;;;;;5034046;28;20172;-65
2023/06/01 08:30:15;;;;;;;22.17;16.15;;;20.60;99.90;;;;;;5034652;28;20205;-66
2023/06/01 08:32:41;;;;;;;18.90;16.95;;;21.00;99.90;;;;;;5015077;28;20211;-65
2023/06/01 08:35:07;;;;;;;18.63;15.05;;;21.30;99.90;;;;;;5033134;28;20195;-65
2023/06/01 08:37:34;;;;;;;20.92;14.88;;;21.70;99.90;;;;;;5033464;28;20624;-66
2023/06/01 08:39:59;;;;;;;17.52;14.88;;;21.80;99.90;;;;;;5033164;28;20229;-66
2023/06/01 08:42:47;;;;;;;19.20;15.73;;;21.90;99.90;;;;;;5034076;28;20195;-66
2023/06/01 08:45:13;;;;;;;19.13;15.10;;;22.20;99.90;;;;;;5033230;28;20189;-66
2023/06/01 08:47:40;;;;;;;20.27;14.60;;;22.50;99.90;;;;;;5034772;28;20174;-66
2023/06/01 08:50:08;;;;;;;18.88;15.65;;;22.60;99.90;;;;;;5034463;28;20591;-66
2023/06/01 08:52:35;;;;;;;23.60;15.75;;;23.00;99.90;;;;;;5032948;28;20214;-66
2023/06/01 08:55:03;;;;;;;20.58;18.60;;;23.50;99.90;;;;;;5034861;28;20587;-66
2023/06/01 08:57:29;;;;;;;18.90;16.83;;;23.70;99.90;;;;;;5032771;28;20203;-66
2023/06/01 08:59:55;;;;;;;22.02;17.40;;;24.10;99.90;;;;;;5034520;28;20167;-66
2023/06/01 09:02:22;;;;;;;18.58;16.67;;;23.70;99.90;;;;;;5033867;28;20307;-66
2023/06/01 09:04:47;;;;;;;23.15;15.43;;;23.70;99.90;;;;;;5034435;28;20258;-66
2023/06/01 09:07:14;;;;;;;19.60;16.83;;;23.70;99.90;;;;;;5033927;28;20266;-66
2023/06/01 09:09:40;;;;;;;19.75;15.45;;;23.60;99.90;;;;;;5034002;28;20527;-66
2023/06/01 09:12:23;;;;;;;21.88;16.77;;;23.90;99.90;;;;;;5034030;28;20271;-66
2023/06/01 09:14:49;;;;;;;20.20;16.05;;;24.40;99.90;;;;;;5034130;28;20191;-66
2023/06/01 09:17:21;;;;;;;20.42;16.90;;;24.80;99.90;;;;;;5033831;28;20230;-66
2023/06/01 09:19:49;;;;;;;22.25;19.48;;;24.90;99.90;;;;;;5034072;28;20164;-66
2023/06/01 09:22:15;;;;;;;23.45;17.63;;;24.30;99.90;;;;;;5034066;28;20298;-66
2023/06/01 09:24:54;;;;;;;20.08;16.08;;;24.10;99.90;;;;;;5033691;28;20250;-66
2023/06/01 09:27:19;;;;;;;20.25;18.08;;;23.90;99.90;;;;;;5033846;28;20221;-66
2023/06/01 09:29:56;;;;;;;19.75;15.45;;;24.00;99.90;;;;;;5033454;28;20180;-66
2023/06/01 09:32:21;;;;;;;22.13;17.38;;;24.40;99.90;;;;;;5033799;28;20229;-66
2023/06/01 09:34:48;;;;;;;25.13;19.35;;;24.80;99.90;;;;;;5031378;28;20176;-66
2023/06/01 09:37:13;;;;;;;21.02;18.17;;;25.00;99.90;;;;;;5033594;28;20186;-66
2023/06/01 09:39:39;;;;;;;21.98;17.42;;;25.10;99.90;;;;;;5033406;28;20175;-66
2023/06/01 09:42:06;;;;;;;26.85;18.90;;;25.20;99.90;;;;;;5033415;28;20175;-65
2023/06/01 09:44:39;;;;;;;22.50;18.30;;;25.00;99.90;;;;;;5033358;28;20545;-66
2023/06/01 09:47:11;;;;;;;23.65;19.15;;;25.10;99.90;;;;;;5033474;28;20206;-65
2023/06/01 09:49:39;;;;;;;27.08;21.70;;;25.50;99.90;;;;;;5032894;28;20179;-65
2023/06/01 09:52:04;;;;;;;27.55;22.27;;;25.60;99.90;;;;;;5033049;28;20167;-66
2023/06/01 09:54:37;;;;;;;28.77;24.42;;;25.70;99.90;;;;;;5033676;28;20187;-66
2023/06/01 09:57:04;;;;;;;28.38;24.02;;;26.00;99.90;;;;;;5033294;28;20175;-66
2023/06/01 09:59:41;;;;;;;26.48;23.58;;;26.10;99.90;;;;;;5033063;28;20301;-66
2023/06/01 10:02:10;;;;;;;26.20;22.02;;;26.20;99.90;;;;;;5033183;28;20178;-66
2023/06/01 10:04:39;;;;;;;29.30;23.50;;;26.50;99.90;;;;;;5033138;28;20259;-66
2023/06/01 10:07:06;;;;;;;29.27;24.67;;;26.60;99.90;;;;;;5033074;28;20168;-66
2023/06/01 10:09:33;;;;;;;35.50;24.55;;;26.50;99.90;;;;;;5032972;28;20171;-66
2023/06/01 10:11:59;;;;;;;29.30;24.02;;;26.60;99.90;;;;;;5032780;28;20172;-66
2023/06/01 10:14:25;;;;;;;28.67;23.67;;;26.40;99.90;;;;;;5032995;28;20183;-66
2023/06/01 10:16:53;;;;;;;24.75;21.95;;;26.20;99.90;;;;;;5033218;28;20194;-65
2023/06/01 10:19:21;;;;;;;29.75;22.80;;;26.10;99.90;;;;;;5032946;28;20199;-66
2023/06/01 10:21:47;;;;;;;28.38;22.05;;;25.60;99.90;;;;;;5032870;28;20267;-66
2023/06/01 10:24:15;;;;;;;27.42;21.40;;;25.30;99.90;;;;;;5033318;28;20740;-66
2023/06/01 10:26:43;;;;;;;29.30;21.40;;;25.30;99.90;;;;;;5032818;28;20226;-66
2023/06/01 10:29:10;;;;;;;26.75;22.38;;;25.60;99.90;;;;;;5032520;28;20171;-66
2023/06/01 10:31:40;;;;;;;25.60;21.45;;;25.50;99.90;;;;;;5032778;28;20631;-65
2023/06/01 10:34:08;;;;;;;27.63;21.05;;;25.40;99.90;;;;;;5032828;28;20203;-65
2023/06/01 10:36:52;;;;;;;27.42;21.85;;;25.50;99.90;;;;;;5031812;28;20179;-66
2023/06/01 10:39:32;;;;;;;27.02;20.90;;;25.70;99.90;;;;;;5031009;28;20231;-66
2023/06/01 10:42:18;;;;;;;25.98;19.90;;;25.90;99.90;;;;;;5013054;28;20598;-66
2023/06/01 10:44:47;;;;;;;27.20;21.00;;;25.90;99.90;;;;;;5015663;28;20175;-66
2023/06/01 10:47:12;;;;;;;24.13;18.67;;;25.20;99.90;;;;;;5032763;28;20579;-66
2023/06/01 10:49:47;;;;;;;29.27;19.88;;;25.20;99.90;;;;;;5028458;28;20263;-66
2023/06/01 10:52:27;;;;;;;25.13;19.13;;;25.40;99.90;;;;;;5030872;28;20197;-66
2023/06/01 10:55:05;;;;;;;21.27;18.75;;;25.60;99.90;;;;;;5032634;28;20175;-66
2023/06/01 10:57:31;;;;;;;21.20;18.00;;;25.90;99.90;;;;;;5032383;28;20198;-65
2023/06/01 11:00:09;;;;;;;26.52;19.27;;;26.00;99.90;;;;;;5032077;28;20194;-66
2023/06/01 11:02:42;;;;;;;24.80;18.98;;;25.60;99.90;;;;;;5031805;28;20192;-66
2023/06/01 11:05:39;;;;;;;20.92;17.67;;;25.50;99.90;;;;;;5032107;28;20171;-66
2023/06/01 11:08:28;;;;;;;20.65;17.70;;;25.60;99.90;;;;;;5032465;28;20190;-66
2023/06/01 11:10:59;;;;;;;17.20;14.75;;;25.90;99.90;;;;;;5031659;28;20178;-66
2023/06/01 11:13:31;;;;;;;17.25;14.35;;;26.20;99.90;;;;;;5032057;28;20548;-66
2023/06/01 11:16:20;;;;;;;21.55;14.93;;;26.40;99.90;;;;;;5032194;28;20179;-66
2023/06/01 11:18:59;;;;;;;17.67;14.13;;;26.80;99.90;;;;;;5030207;28;20652;-66
2023/06/01 11:21:37;;;;;;;17.90;13.65;;;26.50;99.90;;;;;;5031756;28;20687;-66
2023/06/01 11:24:13;;;;;;;19.88;14.05;;;26.80;99.90;;;;;;5032040;28;20286;-66
2023/06/01 11:26:40;;;;;;;14.18;11.60;;;26.90;99.90;;;;;;5031682;28;20167;-66
2023/06/01 11:29:16;;;;;;;14.48;10.50;;;26.70;99.90;;;;;;5031780;28;20186;-66
2023/06/01 11:31:52;;;;;;;15.38;10.63;;;26.70;99.90;;;;;;5031840;28;20175;-66
2023/06/01 11:34:19;;;;;;;13.77;11.05;;;26.80;99.90;;;;;;5031884;28;20178;-66
2023/06/01 11:36:50;;;;;;;14.07;10.10;;;26.70;99.90;;;;;;5031682;28;20209;-65
2023/06/01 11:39:23;;;;;;;13.15;9.65;;;26.60;99.90;;;;;;5031678;28;20676;-66
2023/06/01 11:42:09;;;;;;;13.00;9.57;;;26.80;99.90;;;;;;5031869;28;20168;-66
2023/06/01 11:44:39;;;;;;;17.42;9.90;;;27.40;99.90;;;;;;5031690;28;20660;-66
2023/06/01 11:47:07;;;;;;;12.52;11.23;;;27.90;99.90;;;;;;5031598;28;20171;-66
2023/06/01 11:49:50;;;;;;;15.80;10.15;;;27.80;99.90;;;;;;5031341;28;20176;-66
2023/06/01 11:52:16;;;;;;;16.08;9.52;;;27.60;99.90;;;;;;5031579;28;20190;-66
2023/06/01 11:54:42;;;;;;;18.75;12.73;;;27.40;99.90;;;;;;5030092;28;20181;-66
2023/06/01 11:57:09;;;;;;;15.93;10.88;;;27.20;99.90;;;;;;5030228;28;20167;-66
2023/06/01 11:59:49;;;;;;;17.15;10.38;;;27.40;99.90;;;;;;5031186;28;20605;-66
2023/06/01 12:02:26;;;;;;;13.63;9.13;;;27.40;99.90;;;;;;5031528;28;20187;-65
2023/06/01 12:05:06;;;;;;;13.40;9.00;;;27.30;99.90;;;;;;5031406;28;20182;-66
2023/06/01 12:07:43;;;;;;;12.10;10.02;;;27.10;99.90;;;;;;5030138;28;20859;-66
2023/06/01 12:10:10;;;;;;;15.30;10.00;;;27.30;99.90;;;;;;5031288;28;20171;-66
2023/06/01 12:12:36;;;;;;;11.30;8.98;;;27.70;99.90;;;;;;5031095;28;20307;-66
2023/06/01 12:15:03;;;;;;;15.05;11.13;;;28.10;99.90;;;;;;5031329;28;20261;-66
2023/06/01 12:17:46;;;;;;;11.68;10.20;;;28.50;99.90;;;;;;5031138;28;20199;-65
2023/06/01 12:20:12;;;;;;;12.60;10.98;;;28.30;99.90;;;;;;5031062;28;20175;-66
2023/06/01 12:22:38;;;;;;;13.82;10.20;;;28.10;99.90;;;;;;5030957;28;20202;-66
2023/06/01 12:25:08;;;;;;;13.55;11.35;;;27.50;99.90;;;;;;5031469;28;20175;-66
2023/06/01 12:27:37;;;;;;;21.73;11.27;;;27.50;99.90;;;;;;5031264;28;20182;-66
2023/06/01 12:30:03;;;;;;;18.60;10.25;;;27.80;99.90;;;;;;5031018;28;20637;-66
2023/06/01 12:32:38;;;;;;;13.48;9.88;;;27.30;99.90;;;;;;5030987;28;20198;-66
2023/06/01 12:35:06;;;;;;;16.83;11.45;;;27.40;99.90;;;;;;5031420;28;20250;-66
2023/06/01 12:37:32;;;;;;;14.15;9.70;;;27.10;99.90;;;;;;5030932;28;20688;-66
2023/06/01 12:39:59;;;;;;;14.30;8.65;;;27.30;99.90;;;;;;5030931;28;20174;-66
2023/06/01 12:42:45;;;;;;;14.68;9.95;;;27.50;99.90;;;;;;5030940;28;20252;-66